createdAt,value
2022-09-16T00:03:19.261Z,9.50
2022-09-16T00:13:25.633Z,9.50
2022-09-16T00:23:31.688Z,9.00
2022-09-16T00:33:37.784Z,9.90
2022-09-16T00:44:00.667Z,9.80
2022-09-16T00:54:07.432Z,8.70
2022-09-16T01:04:22.973Z,9.30
2022-09-16T01:14:48.199Z,9.20
2022-09-16T01:25:08.391Z,9.25
2022-09-16T01:35:21.509Z,9.80
2022-09-16T01:45:34.179Z,7.70
2022-09-16T01:55:42.515Z,7.30
2022-09-16T02:05:52.258Z,7.30
2022-09-16T02:16:01.817Z,6.80
2022-09-16T02:26:09.511Z,7.00
2022-09-16T02:36:16.889Z,7.10
2022-09-16T02:46:22.963Z,7.40
2022-09-16T02:56:31.909Z,7.70
2022-09-16T03:06:38.223Z,7.00
2022-09-16T03:16:54.968Z,7.40
2022-09-16T03:27:10.005Z,6.50
2022-09-16T03:37:17.952Z,5.60
2022-09-16T03:47:24.080Z,6.20
2022-09-16T03:57:31.578Z,5.30
2022-09-16T04:07:37.872Z,5.30
2022-09-16T04:17:43.900Z,4.80
2022-09-16T04:27:49.984Z,5.20
2022-09-16T04:37:56.052Z,6.60
2022-09-16T04:48:02.695Z,7.90
2022-09-16T04:58:08.741Z,8.40
2022-09-16T05:08:14.842Z,8.80
2022-09-16T05:18:20.905Z,9.60
2022-09-16T05:28:26.963Z,9.50
2022-09-16T05:38:33.060Z,10.20
2022-09-16T05:48:39.157Z,12.80
2022-09-16T05:58:45.610Z,12.40
2022-09-16T06:08:52.209Z,12.70
2022-09-16T06:18:58.987Z,13.80
2022-09-16T06:29:06.914Z,12.70
2022-09-16T06:39:14.457Z,11.60
2022-09-16T06:49:20.728Z,11.40
2022-09-16T06:59:26.765Z,11.00
2022-09-16T07:09:33.524Z,11.70
2022-09-16T07:19:39.584Z,11.40
2022-09-16T07:29:45.673Z,11.50
2022-09-16T07:39:51.731Z,10.70
2022-09-16T07:49:57.794Z,9.90
2022-09-16T08:00:04.152Z,9.90
2022-09-16T08:10:10.404Z,9.20
2022-09-16T08:20:16.530Z,8.10
2022-09-16T08:30:22.714Z,7.90
2022-09-16T08:40:30.361Z,7.10
2022-09-16T08:50:39.594Z,7.20
2022-09-16T09:00:47.343Z,5.80
2022-09-16T09:10:57.489Z,6.00
2022-09-16T09:21:21.824Z,5.20
2022-09-16T09:31:30.992Z,6.20
2022-09-16T09:41:59.460Z,5.40
2022-09-16T09:52:05.472Z,4.50
2022-09-16T10:02:16.908Z,6.10
2022-09-16T10:12:34.963Z,5.90
2022-09-16T10:22:40.988Z,5.60
2022-09-16T10:32:50.141Z,5.40
2022-09-16T10:43:00.481Z,6.00
2022-09-16T10:53:22.248Z,6.30
2022-09-16T11:03:28.554Z,5.50
2022-09-16T11:13:42.873Z,5.10
2022-09-16T11:24:04.397Z,5.90
2022-09-16T11:34:16.571Z,5.30
2022-09-16T11:44:27.685Z,6.30
2022-09-16T11:54:40.149Z,5.80
2022-09-16T12:04:52.421Z,5.30
2022-09-16T12:15:05.501Z,5.60
2022-09-16T12:25:11.995Z,4.10
2022-09-16T12:35:28.682Z,4.20
2022-09-16T12:45:45.476Z,4.60
2022-09-16T12:56:03.854Z,4.40
2022-09-16T13:06:28.725Z,4.50
2022-09-16T13:16:38.116Z,4.50
2022-09-16T13:26:45.283Z,4.40
2022-09-16T13:36:51.627Z,4.50
2022-09-16T13:47:13.360Z,4.70
2022-09-16T13:57:25.000Z,4.35
2022-09-16T14:07:44.480Z,5.30
2022-09-16T14:17:52.236Z,4.60
2022-09-16T14:28:10.608Z,4.80
2022-09-16T14:38:41.192Z,4.40
2022-09-16T14:48:44.602Z,4.20
2022-09-16T14:58:51.602Z,3.90
2022-09-16T15:09:03.869Z,3.80
2022-09-16T15:19:17.973Z,4.00
2022-09-16T15:29:24.247Z,4.00
2022-09-16T15:39:38.964Z,6.10
2022-09-16T15:49:46.249Z,7.40
2022-09-16T15:59:55.265Z,6.60
2022-09-16T16:10:11.864Z,8.50
2022-09-16T16:20:19.048Z,8.50
2022-09-16T16:30:25.272Z,8.50
2022-09-16T16:40:32.365Z,8.10
2022-09-16T16:50:38.657Z,12.40
2022-09-16T17:00:44.769Z,11.40
2022-09-16T17:10:59.837Z,10.20
2022-09-16T17:21:07.480Z,10.50
2022-09-16T17:31:16.099Z,11.40
2022-09-16T17:41:23.618Z,10.70
2022-09-16T17:51:30.009Z,10.60
2022-09-16T18:01:36.320Z,10.40
2022-09-16T18:11:42.402Z,11.90
2022-09-16T18:21:48.509Z,10.00
2022-09-16T18:31:55.780Z,8.10
2022-09-16T18:42:02.067Z,9.50
2022-09-16T18:52:09.277Z,10.70
2022-09-16T19:02:15.619Z,10.20
2022-09-16T19:12:23.199Z,10.30
2022-09-16T19:22:30.116Z,10.80
2022-09-16T19:32:36.229Z,12.30
2022-09-16T19:42:42.307Z,11.70
2022-09-16T19:52:48.360Z,11.40
2022-09-16T20:02:54.964Z,13.00
2022-09-16T20:13:01.032Z,15.90
2022-09-16T20:23:07.767Z,14.30
2022-09-16T20:33:13.860Z,12.50
2022-09-16T20:43:21.347Z,12.70
2022-09-16T20:53:27.400Z,12.20
2022-09-16T21:03:33.872Z,11.50
2022-09-16T21:13:42.164Z,11.30
2022-09-16T21:23:48.485Z,13.10
2022-09-16T21:33:54.609Z,19.50
2022-09-16T21:44:00.900Z,20.40
2022-09-16T21:54:08.618Z,20.80
2022-09-16T22:04:16.017Z,17.90
2022-09-16T22:14:22.426Z,19.90
2022-09-16T22:24:28.495Z,19.60
2022-09-16T22:34:36.057Z,13.00
2022-09-16T22:44:42.217Z,11.60
2022-09-16T22:54:48.470Z,11.50
2022-09-16T23:04:55.268Z,9.60
2022-09-16T23:15:01.435Z,9.30
2022-09-16T23:25:08.000Z,7.50
2022-09-16T23:35:15.164Z,8.30
2022-09-16T23:45:21.280Z,9.30
2022-09-16T23:55:27.816Z,8.90
